sensor_id;sensor_type;location;lat;lon;timestamp;P1;durP1;ratioP1;P2;durP2;ratioP2
17935;SDS011;9093;52.062;4.508;2023-07-29T00:00:11;1.73;;;0.88;;
17935;SDS011;9093;52.062;4.508;2023-07-29T00:02:52;5.40;;;0.90;;
17935;SDS011;9093;52.062;4.508;2023-07-29T00:05:32;1.10;;;0.70;;
17935;SDS011;9093;52.062;4.508;2023-07-29T00:08:13;1.45;;;0.60;;
17935;SDS011;9093;52.062;4.508;2023-07-29T00:10:53;1.45;;;0.77;;
17935;SDS011;9093;52.062;4.508;2023-07-29T00:13:33;4.07;;;0.52;;
17935;SDS011;9093;52.062;4.508;2023-07-29T00:16:13;1.70;;;0.73;;
17935;SDS011;9093;52.062;4.508;2023-07-29T00:21:37;3.43;;;0.90;;
17935;SDS011;9093;52.062;4.508;2023-07-29T00:24:17;1.02;;;0.63;;
17935;SDS011;9093;52.062;4.508;2023-07-29T00:26:57;1.27;;;0.73;;
17935;SDS011;9093;52.062;4.508;2023-07-29T00:29:38;1.00;;;0.80;;
17935;SDS011;9093;52.062;4.508;2023-07-29T00:32:18;1.25;;;0.85;;
17935;SDS011;9093;52.062;4.508;2023-07-29T00:34:58;3.25;;;0.82;;
17935;SDS011;9093;52.062;4.508;2023-07-29T00:37:40;1.97;;;0.90;;
17935;SDS011;9093;52.062;4.508;2023-07-29T00:40:21;0.95;;;0.60;;
17935;SDS011;9093;52.062;4.508;2023-07-29T00:43:02;1.67;;;0.70;;
17935;SDS011;9093;52.062;4.508;2023-07-29T00:45:43;5.55;;;0.85;;
17935;SDS011;9093;52.062;4.508;2023-07-29T00:48:24;0.90;;;0.50;;
17935;SDS011;9093;52.062;4.508;2023-07-29T00:51:05;3.08;;;1.05;;
17935;SDS011;9093;52.062;4.508;2023-07-29T00:53:46;2.85;;;0.95;;
17935;SDS011;9093;52.062;4.508;2023-07-29T00:56:26;2.90;;;1.23;;
17935;SDS011;9093;52.062;4.508;2023-07-29T00:59:07;2.85;;;0.80;;
17935;SDS011;9093;52.062;4.508;2023-07-29T01:01:47;1.70;;;0.60;;
17935;SDS011;9093;52.062;4.508;2023-07-29T01:04:27;1.70;;;0.77;;
17935;SDS011;9093;52.062;4.508;2023-07-29T01:07:14;2.10;;;1.00;;
17935;SDS011;9093;52.062;4.508;2023-07-29T01:10:03;4.50;;;0.98;;
17935;SDS011;9093;52.062;4.508;2023-07-29T01:12:52;1.05;;;0.80;;
17935;SDS011;9093;52.062;4.508;2023-07-29T01:15:41;2.17;;;1.10;;
17935;SDS011;9093;52.062;4.508;2023-07-29T01:18:29;3.58;;;0.90;;
17935;SDS011;9093;52.062;4.508;2023-07-29T01:21:12;2.83;;;0.75;;
17935;SDS011;9093;52.062;4.508;2023-07-29T01:23:57;2.30;;;1.03;;
17935;SDS011;9093;52.062;4.508;2023-07-29T01:26:39;2.17;;;0.80;;
17935;SDS011;9093;52.062;4.508;2023-07-29T01:29:19;2.63;;;1.13;;
17935;SDS011;9093;52.062;4.508;2023-07-29T01:32:01;1.45;;;0.70;;
17935;SDS011;9093;52.062;4.508;2023-07-29T01:38:09;1.90;;;0.77;;
17935;SDS011;9093;52.062;4.508;2023-07-29T01:40:54;5.40;;;1.15;;
17935;SDS011;9093;52.062;4.508;2023-07-29T01:43:36;2.17;;;0.83;;
17935;SDS011;9093;52.062;4.508;2023-07-29T01:46:22;7.93;;;1.60;;
17935;SDS011;9093;52.062;4.508;2023-07-29T01:49:03;2.60;;;1.10;;
17935;SDS011;9093;52.062;4.508;2023-07-29T01:51:43;3.63;;;1.17;;
17935;SDS011;9093;52.062;4.508;2023-07-29T01:54:23;2.35;;;0.90;;
17935;SDS011;9093;52.062;4.508;2023-07-29T01:57:04;1.20;;;0.80;;
17935;SDS011;9093;52.062;4.508;2023-07-29T01:59:44;2.22;;;1.13;;
17935;SDS011;9093;52.062;4.508;2023-07-29T02:02:24;1.67;;;0.80;;
17935;SDS011;9093;52.062;4.508;2023-07-29T02:05:05;2.20;;;1.13;;
17935;SDS011;9093;52.062;4.508;2023-07-29T02:07:45;2.30;;;0.88;;
17935;SDS011;9093;52.062;4.508;2023-07-29T02:10:25;3.85;;;1.10;;
17935;SDS011;9093;52.062;4.508;2023-07-29T02:13:06;2.05;;;0.75;;
17935;SDS011;9093;52.062;4.508;2023-07-29T02:15:46;4.95;;;1.10;;
17935;SDS011;9093;52.062;4.508;2023-07-29T02:18:26;1.70;;;0.98;;
17935;SDS011;9093;52.062;4.508;2023-07-29T02:21:07;1.30;;;1.00;;
17935;SDS011;9093;52.062;4.508;2023-07-29T02:23:47;3.53;;;1.00;;
17935;SDS011;9093;52.062;4.508;2023-07-29T02:26:27;2.03;;;0.80;;
17935;SDS011;9093;52.062;4.508;2023-07-29T02:29:08;4.00;;;1.23;;
17935;SDS011;9093;52.062;4.508;2023-07-29T02:31:48;2.50;;;1.30;;
17935;SDS011;9093;52.062;4.508;2023-07-29T02:34:29;2.80;;;1.10;;
17935;SDS011;9093;52.062;4.508;2023-07-29T02:37:09;2.90;;;1.05;;
17935;SDS011;9093;52.062;4.508;2023-07-29T02:39:49;1.53;;;0.80;;
17935;SDS011;9093;52.062;4.508;2023-07-29T02:42:30;4.15;;;0.93;;
17935;SDS011;9093;52.062;4.508;2023-07-29T02:45:10;1.85;;;1.05;;
17935;SDS011;9093;52.062;4.508;2023-07-29T02:47:51;1.50;;;0.88;;
17935;SDS011;9093;52.062;4.508;2023-07-29T02:50:34;3.45;;;1.40;;
17935;SDS011;9093;52.062;4.508;2023-07-29T02:53:14;6.97;;;1.20;;
17935;SDS011;9093;52.062;4.508;2023-07-29T02:55:54;1.80;;;1.13;;
17935;SDS011;9093;52.062;4.508;2023-07-29T02:58:35;3.28;;;1.02;;
17935;SDS011;9093;52.062;4.508;2023-07-29T03:01:16;1.63;;;1.00;;
17935;SDS011;9093;52.062;4.508;2023-07-29T03:03:57;2.17;;;1.30;;
17935;SDS011;9093;52.062;4.508;2023-07-29T03:06:37;2.45;;;1.27;;
17935;SDS011;9093;52.062;4.508;2023-07-29T03:09:17;5.68;;;1.23;;
17935;SDS011;9093;52.062;4.508;2023-07-29T03:11:57;2.35;;;1.08;;
17935;SDS011;9093;52.062;4.508;2023-07-29T03:14:39;4.85;;;1.25;;
17935;SDS011;9093;52.062;4.508;2023-07-29T03:17:21;4.73;;;0.90;;
17935;SDS011;9093;52.062;4.508;2023-07-29T03:20:01;1.85;;;0.98;;
17935;SDS011;9093;52.062;4.508;2023-07-29T03:22:41;2.13;;;1.25;;
17935;SDS011;9093;52.062;4.508;2023-07-29T03:25:22;4.80;;;1.03;;
17935;SDS011;9093;52.062;4.508;2023-07-29T03:28:02;2.47;;;1.05;;
17935;SDS011;9093;52.062;4.508;2023-07-29T03:30:42;1.90;;;1.23;;
17935;SDS011;9093;52.062;4.508;2023-07-29T03:33:23;5.93;;;1.20;;
17935;SDS011;9093;52.062;4.508;2023-07-29T03:36:04;2.42;;;1.23;;
17935;SDS011;9093;52.062;4.508;2023-07-29T03:38:45;2.88;;;0.80;;
17935;SDS011;9093;52.062;4.508;2023-07-29T03:41:25;2.05;;;0.95;;
17935;SDS011;9093;52.062;4.508;2023-07-29T03:44:05;2.03;;;1.00;;
17935;SDS011;9093;52.062;4.508;2023-07-29T03:46:46;2.47;;;1.15;;
17935;SDS011;9093;52.062;4.508;2023-07-29T03:49:26;2.03;;;1.13;;
17935;SDS011;9093;52.062;4.508;2023-07-29T03:52:06;3.63;;;1.40;;
17935;SDS011;9093;52.062;4.508;2023-07-29T03:54:47;4.15;;;1.45;;
17935;SDS011;9093;52.062;4.508;2023-07-29T03:57:27;5.17;;;1.50;;
17935;SDS011;9093;52.062;4.508;2023-07-29T04:00:09;1.92;;;1.17;;
17935;SDS011;9093;52.062;4.508;2023-07-29T04:02:50;3.25;;;1.20;;
17935;SDS011;9093;52.062;4.508;2023-07-29T04:05:31;3.50;;;1.42;;
17935;SDS011;9093;52.062;4.508;2023-07-29T04:08:11;3.13;;;1.25;;
17935;SDS011;9093;52.062;4.508;2023-07-29T04:10:52;5.00;;;1.77;;
17935;SDS011;9093;52.062;4.508;2023-07-29T04:13:32;3.05;;;1.40;;
17935;SDS011;9093;52.062;4.508;2023-07-29T04:16:13;3.15;;;1.50;;
17935;SDS011;9093;52.062;4.508;2023-07-29T04:18:53;7.93;;;1.90;;
17935;SDS011;9093;52.062;4.508;2023-07-29T04:21:33;3.03;;;1.87;;
17935;SDS011;9093;52.062;4.508;2023-07-29T04:24:13;5.67;;;1.60;;
17935;SDS011;9093;52.062;4.508;2023-07-29T04:26:54;3.10;;;1.73;;
17935;SDS011;9093;52.062;4.508;2023-07-29T04:29:34;8.10;;;2.22;;
17935;SDS011;9093;52.062;4.508;2023-07-29T04:32:16;3.38;;;1.73;;
17935;SDS011;9093;52.062;4.508;2023-07-29T04:34:56;6.55;;;1.45;;
17935;SDS011;9093;52.062;4.508;2023-07-29T04:37:36;4.55;;;1.67;;
17935;SDS011;9093;52.062;4.508;2023-07-29T04:40:17;3.58;;;1.75;;
17935;SDS011;9093;52.062;4.508;2023-07-29T04:42:57;6.90;;;2.03;;
17935;SDS011;9093;52.062;4.508;2023-07-29T04:45:43;11.90;;;2.17;;
17935;SDS011;9093;52.062;4.508;2023-07-29T04:48:24;4.85;;;1.95;;
17935;SDS011;9093;52.062;4.508;2023-07-29T04:51:04;3.50;;;1.67;;
17935;SDS011;9093;52.062;4.508;2023-07-29T04:53:44;4.80;;;1.50;;
17935;SDS011;9093;52.062;4.508;2023-07-29T04:56:25;3.20;;;1.70;;
17935;SDS011;9093;52.062;4.508;2023-07-29T04:59:05;5.32;;;1.65;;
17935;SDS011;9093;52.062;4.508;2023-07-29T05:01:48;11.32;;;2.80;;
17935;SDS011;9093;52.062;4.508;2023-07-29T05:04:28;5.45;;;2.45;;
17935;SDS011;9093;52.062;4.508;2023-07-29T05:07:09;3.42;;;1.55;;
17935;SDS011;9093;52.062;4.508;2023-07-29T05:09:49;3.95;;;1.85;;
17935;SDS011;9093;52.062;4.508;2023-07-29T05:12:29;5.85;;;1.95;;
17935;SDS011;9093;52.062;4.508;2023-07-29T05:15:10;8.18;;;1.80;;
17935;SDS011;9093;52.062;4.508;2023-07-29T05:17:50;3.58;;;1.80;;
17935;SDS011;9093;52.062;4.508;2023-07-29T05:20:30;2.63;;;1.70;;
17935;SDS011;9093;52.062;4.508;2023-07-29T05:23:11;3.92;;;2.35;;
17935;SDS011;9093;52.062;4.508;2023-07-29T05:25:51;7.32;;;2.30;;
17935;SDS011;9093;52.062;4.508;2023-07-29T05:28:31;2.97;;;1.80;;
17935;SDS011;9093;52.062;4.508;2023-07-29T05:31:12;5.57;;;1.95;;
17935;SDS011;9093;52.062;4.508;2023-07-29T05:33:52;3.97;;;1.88;;
17935;SDS011;9093;52.062;4.508;2023-07-29T05:36:32;4.10;;;2.03;;
17935;SDS011;9093;52.062;4.508;2023-07-29T05:39:13;5.05;;;1.88;;
17935;SDS011;9093;52.062;4.508;2023-07-29T05:41:53;7.15;;;2.08;;
17935;SDS011;9093;52.062;4.508;2023-07-29T05:44:33;3.53;;;1.73;;
17935;SDS011;9093;52.062;4.508;2023-07-29T05:47:14;4.03;;;2.00;;
17935;SDS011;9093;52.062;4.508;2023-07-29T05:49:54;4.03;;;1.75;;
17935;SDS011;9093;52.062;4.508;2023-07-29T05:52:34;5.20;;;2.10;;
17935;SDS011;9093;52.062;4.508;2023-07-29T05:55:15;3.40;;;1.73;;
17935;SDS011;9093;52.062;4.508;2023-07-29T05:57:55;10.40;;;2.45;;
17935;SDS011;9093;52.062;4.508;2023-07-29T06:00:36;3.75;;;1.40;;
17935;SDS011;9093;52.062;4.508;2023-07-29T06:03:16;2.33;;;1.52;;
17935;SDS011;9093;52.062;4.508;2023-07-29T06:05:56;5.22;;;2.05;;
17935;SDS011;9093;52.062;4.508;2023-07-29T06:08:36;3.65;;;1.58;;
17935;SDS011;9093;52.062;4.508;2023-07-29T06:11:17;3.17;;;1.60;;
17935;SDS011;9093;52.062;4.508;2023-07-29T06:13:57;4.70;;;1.33;;
17935;SDS011;9093;52.062;4.508;2023-07-29T06:16:37;5.15;;;1.65;;
17935;SDS011;9093;52.062;4.508;2023-07-29T06:19:18;8.75;;;1.55;;
17935;SDS011;9093;52.062;4.508;2023-07-29T06:22:00;6.93;;;1.37;;
17935;SDS011;9093;52.062;4.508;2023-07-29T06:24:41;5.80;;;1.70;;
17935;SDS011;9093;52.062;4.508;2023-07-29T06:27:22;7.60;;;1.60;;
17935;SDS011;9093;52.062;4.508;2023-07-29T06:30:02;3.47;;;1.83;;
17935;SDS011;9093;52.062;4.508;2023-07-29T06:32:42;1.55;;;1.20;;
17935;SDS011;9093;52.062;4.508;2023-07-29T06:35:23;8.60;;;1.75;;
17935;SDS011;9093;52.062;4.508;2023-07-29T06:38:03;5.20;;;1.50;;
17935;SDS011;9093;52.062;4.508;2023-07-29T06:40:43;3.58;;;1.50;;
17935;SDS011;9093;52.062;4.508;2023-07-29T06:43:24;7.27;;;1.50;;
17935;SDS011;9093;52.062;4.508;2023-07-29T06:46:04;5.40;;;1.52;;
17935;SDS011;9093;52.062;4.508;2023-07-29T06:48:44;5.63;;;1.52;;
17935;SDS011;9093;52.062;4.508;2023-07-29T06:51:25;2.67;;;1.08;;
17935;SDS011;9093;52.062;4.508;2023-07-29T06:54:05;2.70;;;1.63;;
17935;SDS011;9093;52.062;4.508;2023-07-29T06:56:45;2.13;;;1.07;;
17935;SDS011;9093;52.062;4.508;2023-07-29T06:59:25;7.53;;;1.55;;
17935;SDS011;9093;52.062;4.508;2023-07-29T07:02:06;6.18;;;1.00;;
17935;SDS011;9093;52.062;4.508;2023-07-29T07:04:47;3.08;;;1.10;;
17935;SDS011;9093;52.062;4.508;2023-07-29T07:07:27;2.50;;;0.93;;
17935;SDS011;9093;52.062;4.508;2023-07-29T07:10:07;6.38;;;0.88;;
17935;SDS011;9093;52.062;4.508;2023-07-29T07:12:48;2.60;;;1.10;;
17935;SDS011;9093;52.062;4.508;2023-07-29T07:15:28;2.75;;;0.80;;
17935;SDS011;9093;52.062;4.508;2023-07-29T07:18:08;18.67;;;1.10;;
17935;SDS011;9093;52.062;4.508;2023-07-29T07:20:49;3.33;;;0.80;;
17935;SDS011;9093;52.062;4.508;2023-07-29T07:23:30;1.67;;;0.80;;
17935;SDS011;9093;52.062;4.508;2023-07-29T07:26:10;1.43;;;0.80;;
17935;SDS011;9093;52.062;4.508;2023-07-29T07:28:50;2.10;;;0.70;;
17935;SDS011;9093;52.062;4.508;2023-07-29T07:31:33;1.65;;;0.70;;
17935;SDS011;9093;52.062;4.508;2023-07-29T07:34:14;1.42;;;0.75;;
17935;SDS011;9093;52.062;4.508;2023-07-29T07:36:54;4.03;;;1.00;;
17935;SDS011;9093;52.062;4.508;2023-07-29T07:39:35;7.50;;;0.90;;
17935;SDS011;9093;52.062;4.508;2023-07-29T07:42:15;5.03;;;0.88;;
17935;SDS011;9093;52.062;4.508;2023-07-29T07:44:55;1.83;;;0.80;;
17935;SDS011;9093;52.062;4.508;2023-07-29T07:47:36;1.05;;;0.60;;
17935;SDS011;9093;52.062;4.508;2023-07-29T07:50:16;3.08;;;0.90;;
17935;SDS011;9093;52.062;4.508;2023-07-29T07:52:57;3.40;;;1.15;;
17935;SDS011;9093;52.062;4.508;2023-07-29T07:55:37;1.90;;;0.70;;
17935;SDS011;9093;52.062;4.508;2023-07-29T07:58:17;1.33;;;0.80;;
17935;SDS011;9093;52.062;4.508;2023-07-29T08:01:07;4.40;;;0.90;;
17935;SDS011;9093;52.062;4.508;2023-07-29T08:03:48;5.38;;;0.90;;
17935;SDS011;9093;52.062;4.508;2023-07-29T08:06:29;3.17;;;0.80;;
17935;SDS011;9093;52.062;4.508;2023-07-29T08:09:10;5.45;;;0.73;;
17935;SDS011;9093;52.062;4.508;2023-07-29T08:11:50;4.10;;;1.00;;
17935;SDS011;9093;52.062;4.508;2023-07-29T08:14:31;2.33;;;1.13;;
17935;SDS011;9093;52.062;4.508;2023-07-29T08:17:11;5.23;;;1.00;;
17935;SDS011;9093;52.062;4.508;2023-07-29T08:19:51;2.50;;;1.07;;
17935;SDS011;9093;52.062;4.508;2023-07-29T08:22:31;3.90;;;1.10;;
17935;SDS011;9093;52.062;4.508;2023-07-29T08:25:12;1.10;;;0.80;;
17935;SDS011;9093;52.062;4.508;2023-07-29T08:27:52;4.20;;;1.25;;
17935;SDS011;9093;52.062;4.508;2023-07-29T08:30:33;1.70;;;0.90;;
17935;SDS011;9093;52.062;4.508;2023-07-29T08:33:13;6.77;;;1.07;;
17935;SDS011;9093;52.062;4.508;2023-07-29T08:35:53;3.08;;;0.93;;
17935;SDS011;9093;52.062;4.508;2023-07-29T08:38:34;5.68;;;1.10;;
17935;SDS011;9093;52.062;4.508;2023-07-29T08:41:29;2.65;;;0.90;;
17935;SDS011;9093;52.062;4.508;2023-07-29T08:44:22;1.55;;;0.90;;
17935;SDS011;9093;52.062;4.508;2023-07-29T08:47:06;2.85;;;1.02;;
17935;SDS011;9093;52.062;4.508;2023-07-29T08:49:46;3.53;;;0.90;;
17935;SDS011;9093;52.062;4.508;2023-07-29T08:52:29;6.03;;;1.10;;
17935;SDS011;9093;52.062;4.508;2023-07-29T08:55:12;7.45;;;1.10;;
17935;SDS011;9093;52.062;4.508;2023-07-29T08:57:52;4.68;;;1.10;;
17935;SDS011;9093;52.062;4.508;2023-07-29T09:00:34;4.43;;;1.08;;
17935;SDS011;9093;52.062;4.508;2023-07-29T09:03:14;1.98;;;0.93;;
17935;SDS011;9093;52.062;4.508;2023-07-29T09:05:55;1.40;;;0.80;;
17935;SDS011;9093;52.062;4.508;2023-07-29T09:08:37;3.03;;;0.90;;
17935;SDS011;9093;52.062;4.508;2023-07-29T09:11:18;2.70;;;1.27;;
17935;SDS011;9093;52.062;4.508;2023-07-29T09:13:59;3.92;;;1.35;;
17935;SDS011;9093;52.062;4.508;2023-07-29T09:16:39;2.70;;;1.10;;
17935;SDS011;9093;52.062;4.508;2023-07-29T09:19:20;4.10;;;1.48;;
17935;SDS011;9093;52.062;4.508;2023-07-29T09:22:00;2.83;;;1.48;;
17935;SDS011;9093;52.062;4.508;2023-07-29T09:24:40;4.90;;;1.50;;
17935;SDS011;9093;52.062;4.508;2023-07-29T09:27:24;7.53;;;1.95;;
17935;SDS011;9093;52.062;4.508;2023-07-29T09:30:06;3.25;;;1.60;;
17935;SDS011;9093;52.062;4.508;2023-07-29T09:32:55;3.50;;;1.58;;
17935;SDS011;9093;52.062;4.508;2023-07-29T09:35:37;4.70;;;2.15;;
17935;SDS011;9093;52.062;4.508;2023-07-29T09:38:18;2.47;;;1.85;;
17935;SDS011;9093;52.062;4.508;2023-07-29T09:41:06;6.07;;;1.85;;
17935;SDS011;9093;52.062;4.508;2023-07-29T09:43:47;6.25;;;1.50;;
17935;SDS011;9093;52.062;4.508;2023-07-29T09:46:34;5.35;;;1.90;;
17935;SDS011;9093;52.062;4.508;2023-07-29T09:49:15;5.07;;;1.98;;
17935;SDS011;9093;52.062;4.508;2023-07-29T09:51:56;2.37;;;1.60;;
17935;SDS011;9093;52.062;4.508;2023-07-29T09:54:36;4.95;;;1.58;;
17935;SDS011;9093;52.062;4.508;2023-07-29T09:57:18;2.30;;;1.40;;
17935;SDS011;9093;52.062;4.508;2023-07-29T09:59:58;6.20;;;1.60;;
17935;SDS011;9093;52.062;4.508;2023-07-29T10:02:39;1.83;;;1.23;;
17935;SDS011;9093;52.062;4.508;2023-07-29T10:05:21;6.60;;;2.05;;
17935;SDS011;9093;52.062;4.508;2023-07-29T10:08:03;3.70;;;1.00;;
17935;SDS011;9093;52.062;4.508;2023-07-29T10:10:44;2.78;;;1.30;;
17935;SDS011;9093;52.062;4.508;2023-07-29T10:13:25;1.55;;;0.93;;
17935;SDS011;9093;52.062;4.508;2023-07-29T10:16:06;1.35;;;0.90;;
17935;SDS011;9093;52.062;4.508;2023-07-29T10:18:46;1.30;;;0.90;;
17935;SDS011;9093;52.062;4.508;2023-07-29T10:21:27;1.30;;;0.90;;
17935;SDS011;9093;52.062;4.508;2023-07-29T10:24:11;4.22;;;1.00;;
17935;SDS011;9093;52.062;4.508;2023-07-29T10:26:59;8.10;;;1.30;;
17935;SDS011;9093;52.062;4.508;2023-07-29T10:29:40;3.13;;;0.80;;
17935;SDS011;9093;52.062;4.508;2023-07-29T10:32:24;2.83;;;0.80;;
17935;SDS011;9093;52.062;4.508;2023-07-29T10:37:47;1.55;;;0.80;;
17935;SDS011;9093;52.062;4.508;2023-07-29T10:40:47;0.85;;;0.60;;
17935;SDS011;9093;52.062;4.508;2023-07-29T10:43:34;2.15;;;1.10;;
17935;SDS011;9093;52.062;4.508;2023-07-29T10:46:21;1.65;;;0.55;;
17935;SDS011;9093;52.062;4.508;2023-07-29T10:49:02;3.08;;;0.80;;
17935;SDS011;9093;52.062;4.508;2023-07-29T10:51:42;2.33;;;0.60;;
17935;SDS011;9093;52.062;4.508;2023-07-29T10:54:23;7.32;;;3.30;;
17935;SDS011;9093;52.062;4.508;2023-07-29T10:57:03;2.00;;;1.25;;
17935;SDS011;9093;52.062;4.508;2023-07-29T10:59:57;1.23;;;0.80;;
17935;SDS011;9093;52.062;4.508;2023-07-29T11:02:37;1.02;;;0.65;;
17935;SDS011;9093;52.062;4.508;2023-07-29T11:05:18;2.53;;;1.00;;
17935;SDS011;9093;52.062;4.508;2023-07-29T11:07:59;1.67;;;0.85;;
17935;SDS011;9093;52.062;4.508;2023-07-29T11:11:16;0.90;;;0.80;;
17935;SDS011;9093;52.062;4.508;2023-07-29T11:13:56;1.43;;;0.97;;
17935;SDS011;9093;52.062;4.508;2023-07-29T11:16:39;0.80;;;0.65;;
17935;SDS011;9093;52.062;4.508;2023-07-29T11:19:21;1.70;;;0.82;;
17935;SDS011;9093;52.062;4.508;2023-07-29T11:22:01;1.50;;;1.02;;
17935;SDS011;9093;52.062;4.508;2023-07-29T11:24:42;1.55;;;0.85;;
17935;SDS011;9093;52.062;4.508;2023-07-29T11:27:22;1.40;;;0.87;;
17935;SDS011;9093;52.062;4.508;2023-07-29T11:30:04;3.03;;;1.45;;
17935;SDS011;9093;52.062;4.508;2023-07-29T11:32:46;1.48;;;1.08;;
17935;SDS011;9093;52.062;4.508;2023-07-29T11:35:26;3.17;;;1.15;;
17935;SDS011;9093;52.062;4.508;2023-07-29T11:38:07;4.93;;;1.15;;
17935;SDS011;9093;52.062;4.508;2023-07-29T11:40:58;2.22;;;0.90;;
17935;SDS011;9093;52.062;4.508;2023-07-29T11:43:40;7.25;;;1.08;;
17935;SDS011;9093;52.062;4.508;2023-07-29T11:46:20;1.10;;;0.90;;
17935;SDS011;9093;52.062;4.508;2023-07-29T11:49:02;2.80;;;0.90;;
17935;SDS011;9093;52.062;4.508;2023-07-29T11:51:43;1.65;;;1.10;;
17935;SDS011;9093;52.062;4.508;2023-07-29T11:54:24;1.38;;;1.10;;
17935;SDS011;9093;52.062;4.508;2023-07-29T11:57:08;5.30;;;1.17;;
17935;SDS011;9093;52.062;4.508;2023-07-29T11:59:49;1.58;;;0.90;;
17935;SDS011;9093;52.062;4.508;2023-07-29T12:02:29;1.05;;;0.80;;
17935;SDS011;9093;52.062;4.508;2023-07-29T12:05:10;1.40;;;0.90;;
17935;SDS011;9093;52.062;4.508;2023-07-29T12:07:53;2.13;;;1.08;;
17935;SDS011;9093;52.062;4.508;2023-07-29T12:10:33;3.58;;;1.33;;
17935;SDS011;9093;52.062;4.508;2023-07-29T12:13:14;2.38;;;0.77;;
17935;SDS011;9093;52.062;4.508;2023-07-29T12:16:00;4.03;;;1.00;;
17935;SDS011;9093;52.062;4.508;2023-07-29T12:18:42;2.20;;;0.90;;
17935;SDS011;9093;52.062;4.508;2023-07-29T12:21:24;6.28;;;1.08;;
17935;SDS011;9093;52.062;4.508;2023-07-29T12:24:04;5.07;;;0.98;;
17935;SDS011;9093;52.062;4.508;2023-07-29T12:26:46;2.45;;;0.90;;
17935;SDS011;9093;52.062;4.508;2023-07-29T12:29:27;2.70;;;0.80;;
17935;SDS011;9093;52.062;4.508;2023-07-29T12:32:08;2.97;;;0.95;;
17935;SDS011;9093;52.062;4.508;2023-07-29T12:34:49;1.40;;;0.90;;
17935;SDS011;9093;52.062;4.508;2023-07-29T12:37:32;4.55;;;0.93;;
17935;SDS011;9093;52.062;4.508;2023-07-29T12:40:37;5.20;;;1.08;;
17935;SDS011;9093;52.062;4.508;2023-07-29T12:43:18;2.05;;;0.80;;
17935;SDS011;9093;52.062;4.508;2023-07-29T12:45:58;1.40;;;0.90;;
17935;SDS011;9093;52.062;4.508;2023-07-29T12:48:39;1.02;;;0.68;;
17935;SDS011;9093;52.062;4.508;2023-07-29T12:51:19;2.40;;;0.73;;
17935;SDS011;9093;52.062;4.508;2023-07-29T12:53:59;1.37;;;0.70;;
17935;SDS011;9093;52.062;4.508;2023-07-29T12:56:40;1.77;;;0.70;;
17935;SDS011;9093;52.062;4.508;2023-07-29T12:59:21;1.30;;;0.60;;
17935;SDS011;9093;52.062;4.508;2023-07-29T13:02:01;4.63;;;0.80;;
17935;SDS011;9093;52.062;4.508;2023-07-29T13:04:41;3.75;;;1.20;;
17935;SDS011;9093;52.062;4.508;2023-07-29T13:07:21;1.45;;;0.80;;
17935;SDS011;9093;52.062;4.508;2023-07-29T13:10:02;1.48;;;0.85;;
17935;SDS011;9093;52.062;4.508;2023-07-29T13:12:43;2.70;;;0.98;;
17935;SDS011;9093;52.062;4.508;2023-07-29T13:15:23;2.15;;;0.70;;
17935;SDS011;9093;52.062;4.508;2023-07-29T13:18:03;1.63;;;0.60;;
17935;SDS011;9093;52.062;4.508;2023-07-29T13:20:44;2.78;;;0.90;;
17935;SDS011;9093;52.062;4.508;2023-07-29T13:23:24;1.75;;;0.80;;
17935;SDS011;9093;52.062;4.508;2023-07-29T13:26:04;2.57;;;0.77;;
17935;SDS011;9093;52.062;4.508;2023-07-29T13:28:44;2.03;;;0.90;;
17935;SDS011;9093;52.062;4.508;2023-07-29T13:31:25;1.88;;;0.75;;
17935;SDS011;9093;52.062;4.508;2023-07-29T13:34:05;3.17;;;1.07;;
17935;SDS011;9093;52.062;4.508;2023-07-29T13:36:45;2.45;;;0.75;;
17935;SDS011;9093;52.062;4.508;2023-07-29T13:39:26;1.60;;;1.00;;
17935;SDS011;9093;52.062;4.508;2023-07-29T13:42:07;2.72;;;0.93;;
17935;SDS011;9093;52.062;4.508;2023-07-29T13:44:47;7.22;;;0.90;;
17935;SDS011;9093;52.062;4.508;2023-07-29T13:47:28;1.38;;;0.85;;
17935;SDS011;9093;52.062;4.508;2023-07-29T13:50:08;1.33;;;0.75;;
17935;SDS011;9093;52.062;4.508;2023-07-29T13:52:48;2.20;;;0.80;;
17935;SDS011;9093;52.062;4.508;2023-07-29T13:55:29;1.37;;;0.80;;
17935;SDS011;9093;52.062;4.508;2023-07-29T13:58:09;3.37;;;0.90;;
17935;SDS011;9093;52.062;4.508;2023-07-29T14:00:49;2.17;;;0.80;;
17935;SDS011;9093;52.062;4.508;2023-07-29T14:03:30;7.22;;;0.82;;
17935;SDS011;9093;52.062;4.508;2023-07-29T14:06:10;1.70;;;0.80;;
17935;SDS011;9093;52.062;4.508;2023-07-29T14:08:50;2.35;;;0.90;;
17935;SDS011;9093;52.062;4.508;2023-07-29T14:11:30;2.43;;;1.00;;
17935;SDS011;9093;52.062;4.508;2023-07-29T14:14:11;1.83;;;0.87;;
17935;SDS011;9093;52.062;4.508;2023-07-29T14:16:51;1.90;;;0.85;;
17935;SDS011;9093;52.062;4.508;2023-07-29T14:19:31;1.33;;;0.70;;
17935;SDS011;9093;52.062;4.508;2023-07-29T14:22:12;1.25;;;0.70;;
17935;SDS011;9093;52.062;4.508;2023-07-29T14:24:52;2.10;;;0.90;;
17935;SDS011;9093;52.062;4.508;2023-07-29T14:27:32;1.90;;;0.80;;
17935;SDS011;9093;52.062;4.508;2023-07-29T14:30:13;1.30;;;0.80;;
17935;SDS011;9093;52.062;4.508;2023-07-29T14:32:53;4.93;;;1.02;;
17935;SDS011;9093;52.062;4.508;2023-07-29T14:35:33;1.08;;;0.63;;
17935;SDS011;9093;52.062;4.508;2023-07-29T14:38:13;4.78;;;0.98;;
17935;SDS011;9093;52.062;4.508;2023-07-29T14:40:54;2.85;;;0.73;;
17935;SDS011;9093;52.062;4.508;2023-07-29T14:43:36;1.90;;;0.87;;
17935;SDS011;9093;52.062;4.508;2023-07-29T14:46:16;2.23;;;0.90;;
17935;SDS011;9093;52.062;4.508;2023-07-29T14:48:56;2.05;;;1.15;;
17935;SDS011;9093;52.062;4.508;2023-07-29T14:51:37;4.47;;;1.00;;
17935;SDS011;9093;52.062;4.508;2023-07-29T14:54:17;2.67;;;0.90;;
17935;SDS011;9093;52.062;4.508;2023-07-29T14:56:57;1.63;;;0.80;;
17935;SDS011;9093;52.062;4.508;2023-07-29T14:59:44;1.63;;;1.00;;
17935;SDS011;9093;52.062;4.508;2023-07-29T15:02:24;1.67;;;0.82;;
17935;SDS011;9093;52.062;4.508;2023-07-29T15:05:05;3.55;;;0.82;;
17935;SDS011;9093;52.062;4.508;2023-07-29T15:07:46;2.25;;;0.80;;
17935;SDS011;9093;52.062;4.508;2023-07-29T15:10:26;2.33;;;0.80;;
17935;SDS011;9093;52.062;4.508;2023-07-29T15:13:07;2.45;;;0.77;;
17935;SDS011;9093;52.062;4.508;2023-07-29T15:15:47;1.73;;;0.90;;
17935;SDS011;9093;52.062;4.508;2023-07-29T15:18:30;1.42;;;0.95;;
17935;SDS011;9093;52.062;4.508;2023-07-29T15:21:10;2.55;;;0.70;;
17935;SDS011;9093;52.062;4.508;2023-07-29T15:23:51;2.40;;;1.10;;
17935;SDS011;9093;52.062;4.508;2023-07-29T15:26:31;1.20;;;0.90;;
17935;SDS011;9093;52.062;4.508;2023-07-29T15:29:11;1.25;;;0.70;;
17935;SDS011;9093;52.062;4.508;2023-07-29T15:31:52;1.27;;;0.85;;
17935;SDS011;9093;52.062;4.508;2023-07-29T15:34:32;2.30;;;0.70;;
17935;SDS011;9093;52.062;4.508;2023-07-29T15:37:12;3.80;;;0.80;;
17935;SDS011;9093;52.062;4.508;2023-07-29T15:39:52;4.20;;;0.70;;
17935;SDS011;9093;52.062;4.508;2023-07-29T15:42:33;3.03;;;0.80;;
17935;SDS011;9093;52.062;4.508;2023-07-29T15:45:14;2.88;;;1.35;;
17935;SDS011;9093;52.062;4.508;2023-07-29T15:47:54;2.85;;;0.90;;
17935;SDS011;9093;52.062;4.508;2023-07-29T15:50:34;3.63;;;0.83;;
17935;SDS011;9093;52.062;4.508;2023-07-29T15:53:15;2.80;;;1.13;;
17935;SDS011;9093;52.062;4.508;2023-07-29T15:55:55;2.80;;;0.80;;
17935;SDS011;9093;52.062;4.508;2023-07-29T15:58:35;1.77;;;0.68;;
17935;SDS011;9093;52.062;4.508;2023-07-29T16:01:15;3.17;;;0.80;;
17935;SDS011;9093;52.062;4.508;2023-07-29T16:03:56;5.27;;;0.83;;
17935;SDS011;9093;52.062;4.508;2023-07-29T16:06:36;3.35;;;0.60;;
17935;SDS011;9093;52.062;4.508;2023-07-29T16:09:19;1.67;;;0.70;;
17935;SDS011;9093;52.062;4.508;2023-07-29T16:14:41;4.32;;;1.10;;
17935;SDS011;9093;52.062;4.508;2023-07-29T16:17:22;2.03;;;0.70;;
17935;SDS011;9093;52.062;4.508;2023-07-29T16:20:02;2.75;;;1.00;;
17935;SDS011;9093;52.062;4.508;2023-07-29T16:22:43;10.85;;;1.38;;
17935;SDS011;9093;52.062;4.508;2023-07-29T16:25:23;3.85;;;1.48;;
17935;SDS011;9093;52.062;4.508;2023-07-29T16:28:04;3.42;;;0.95;;
17935;SDS011;9093;52.062;4.508;2023-07-29T16:30:44;2.63;;;0.80;;
17935;SDS011;9093;52.062;4.508;2023-07-29T16:33:24;1.83;;;0.80;;
17935;SDS011;9093;52.062;4.508;2023-07-29T16:36:05;4.00;;;0.97;;